Time;durP1;ratioP1;P1;durP2;ratioP2;P2;SDS_P1;SDS_P2;PMS_P1;PMS_P2;Temp;Humidity;BMP_temperature;BMP_pressure;BME280_temperature;BME280_humidity;BME280_pressure;Samples;Min_cycle;Max_cycle;Signal;HPM_P1;HPM_P2
2020/12/10 00:05:02;;;;;;;15.87;9.70;;;;;;;;;;10549829;28;20563;-73
2020/12/10 00:10:04;;;;;;;18.00;9.87;;;;;;;;;;10551910;28;20235;-73
2020/12/10 00:15:06;;;;;;;15.30;9.63;;;;;;;;;;10563280;28;20222;-72
2020/12/10 00:20:09;;;;;;;16.13;10.17;;;;;;;;;;10549949;28;20214;-73
2020/12/10 00:25:11;;;;;;;8.67;4.33;;;;;;;;;;10554288;28;20225;-74
2020/12/10 00:30:12;;;;;;;16.40;10.13;;;;;;;;;;10539960;28;20230;-72
2020/12/10 00:35:15;;;;;;;16.20;8.50;;;;;;;;;;10560677;28;20554;-72
2020/12/10 00:40:16;;;;;;;17.37;11.03;;;;;;;;;;10555385;28;20223;-73
2020/12/10 00:45:18;;;;;;;17.60;10.50;;;;;;;;;;10552040;28;20721;-74
2020/12/10 00:50:20;;;;;;;16.67;9.43;;;;;;;;;;10558022;28;20239;-77
2020/12/10 00:55:22;;;;;;;17.83;10.50;;;;;;;;;;10546776;28;20273;-75
2020/12/10 01:00:23;;;;;;;15.90;8.77;;;;;;;;;;10543584;28;20445;-74
2020/12/10 01:05:26;;;;;;;18.57;10.43;;;;;;;;;;10545335;28;20219;-74
2020/12/10 01:10:27;;;;;;;18.73;10.80;;;;;;;;;;10547808;28;20234;-73
2020/12/10 01:15:29;;;;;;;15.90;9.93;;;;;;;;;;10553305;28;20281;-72
2020/12/10 01:20:31;;;;;;;15.53;9.47;;;;;;;;;;10548792;28;20616;-75
2020/12/10 01:25:33;;;;;;;16.93;9.37;;;;;;;;;;10561947;28;20223;-75
2020/12/10 01:30:34;;;;;;;16.07;9.90;;;;;;;;;;10549827;28;20215;-74
2020/12/10 01:35:37;;;;;;;17.23;9.57;;;;;;;;;;10545587;28;20199;-76
2020/12/10 01:40:39;;;;;;;17.13;10.40;;;;;;;;;;10549264;28;20266;-76
2020/12/10 01:45:40;;;;;;;15.73;9.43;;;;;;;;;;10548644;28;20241;-76
2020/12/10 01:50:43;;;;;;;13.40;7.17;;;;;;;;;;10543811;28;20218;-76
2020/12/10 01:55:45;;;;;;;16.17;9.80;;;;;;;;;;10547872;28;20215;-76
2020/12/10 02:00:47;;;;;;;17.17;9.63;;;;;;;;;;10558367;28;20229;-75
2020/12/10 02:05:49;;;;;;;16.67;9.50;;;;;;;;;;10549461;28;20218;-75
2020/12/10 02:10:50;;;;;;;15.43;8.27;;;;;;;;;;10548098;28;20226;-74
2020/12/10 02:15:52;;;;;;;16.47;9.53;;;;;;;;;;10557285;28;20218;-74
2020/12/10 02:20:54;;;;;;;16.23;9.67;;;;;;;;;;10548174;28;20223;-75
2020/12/10 02:25:57;;;;;;;16.87;9.80;;;;;;;;;;10549835;28;20215;-75
2020/12/10 02:30:58;;;;;;;15.50;9.17;;;;;;;;;;10537869;28;20223;-74
2020/12/10 02:36:00;;;;;;;16.40;9.80;;;;;;;;;;10550765;28;20294;-74
2020/12/10 02:41:02;;;;;;;17.27;9.93;;;;;;;;;;10549455;28;20590;-73
2020/12/10 02:46:03;;;;;;;17.20;9.67;;;;;;;;;;10541208;28;20231;-74
2020/12/10 02:51:05;;;;;;;17.33;9.70;;;;;;;;;;10561430;28;20219;-74
2020/12/10 02:56:08;;;;;;;16.73;8.37;;;;;;;;;;10550775;28;20203;-74
2020/12/10 03:01:10;;;;;;;18.30;10.60;;;;;;;;;;10552014;28;20226;-75
2020/12/10 03:06:11;;;;;;;17.87;10.50;;;;;;;;;;10552305;28;20678;-75
2020/12/10 03:11:14;;;;;;;16.80;10.03;;;;;;;;;;10556506;28;20540;-75
2020/12/10 03:16:15;;;;;;;15.77;9.27;;;;;;;;;;10550483;28;20274;-75
2020/12/10 03:21:16;;;;;;;16.27;9.50;;;;;;;;;;10554974;28;20257;-74
2020/12/10 03:26:19;;;;;;;15.77;8.90;;;;;;;;;;10548291;28;20284;-74
2020/12/10 03:31:20;;;;;;;14.67;8.37;;;;;;;;;;10559550;28;20223;-75
2020/12/10 03:36:22;;;;;;;15.93;9.10;;;;;;;;;;10559607;28;20603;-74
2020/12/10 03:41:25;;;;;;;15.17;9.63;;;;;;;;;;10557266;28;20249;-74
2020/12/10 03:46:27;;;;;;;16.53;8.83;;;;;;;;;;10556715;28;20238;-74
2020/12/10 03:51:29;;;;;;;16.57;9.43;;;;;;;;;;10557067;28;20231;-74
2020/12/10 03:56:32;;;;;;;15.70;9.27;;;;;;;;;;10560060;28;20227;-73
2020/12/10 04:01:34;;;;;;;16.47;8.83;;;;;;;;;;10559133;28;20211;-73
2020/12/10 04:06:42;;;;;;;16.37;9.37;;;;;;;;;;10556362;28;20222;-73
2020/12/10 04:11:45;;;;;;;16.47;8.53;;;;;;;;;;10558329;28;20666;-71
2020/12/10 04:16:46;;;;;;;16.07;8.10;;;;;;;;;;10559239;28;20188;-73
2020/12/10 04:21:48;;;;;;;16.57;9.37;;;;;;;;;;10558342;28;20227;-72
2020/12/10 04:26:50;;;;;;;14.67;9.07;;;;;;;;;;10561372;28;20215;-73
2020/12/10 04:31:52;;;;;;;16.83;9.40;;;;;;;;;;10551199;28;20576;-74
2020/12/10 04:36:53;;;;;;;14.10;7.90;;;;;;;;;;10551798;28;20203;-73
2020/12/10 04:41:55;;;;;;;15.23;8.60;;;;;;;;;;10558911;28;20219;-73
2020/12/10 04:46:59;;;;;;;14.40;8.27;;;;;;;;;;10554763;28;20215;-73
2020/12/10 04:52:00;;;;;;;14.00;7.80;;;;;;;;;;10553112;28;20298;-73
2020/12/10 04:57:03;;;;;;;15.83;8.80;;;;;;;;;;10560904;28;20654;-74
2020/12/10 05:02:08;;;;;;;14.93;8.27;;;;;;;;;;10548878;28;20735;-74
2020/12/10 05:07:10;;;;;;;15.27;8.23;;;;;;;;;;10551801;28;20321;-74
2020/12/10 05:12:17;;;;;;;15.33;8.53;;;;;;;;;;10541751;28;20249;-75
2020/12/10 05:17:20;;;;;;;13.80;7.73;;;;;;;;;;10550353;28;20221;-73
2020/12/10 05:22:22;;;;;;;16.80;9.10;;;;;;;;;;10538026;28;20222;-72
2020/12/10 05:27:25;;;;;;;14.73;8.60;;;;;;;;;;10551373;28;20551;-74
2020/12/10 05:32:31;;;;;;;13.87;8.00;;;;;;;;;;10554655;28;20222;-74
2020/12/10 05:37:32;;;;;;;13.67;7.97;;;;;;;;;;10556363;28;20536;-71
2020/12/10 05:42:38;;;;;;;14.87;8.40;;;;;;;;;;10556024;28;20216;-72
2020/12/10 05:47:41;;;;;;;15.77;9.13;;;;;;;;;;10556532;28;20231;-72
2020/12/10 05:52:44;;;;;;;15.13;8.70;;;;;;;;;;10558027;28;20222;-74
2020/12/10 05:57:46;;;;;;;14.07;7.73;;;;;;;;;;10553404;28;20207;-74
2020/12/10 06:02:48;;;;;;;15.80;8.77;;;;;;;;;;10555913;28;20571;-74
2020/12/10 06:08:03;;;;;;;17.83;10.13;;;;;;;;;;10539847;28;20215;-74
2020/12/10 06:13:06;;;;;;;16.87;9.80;;;;;;;;;;10538511;28;20309;-73
2020/12/10 06:18:09;;;;;;;16.83;9.80;;;;;;;;;;10555095;28;20187;-74
2020/12/10 06:23:31;;;;;;;17.70;9.93;;;;;;;;;;10560421;28;20225;-72
2020/12/10 06:28:33;;;;;;;16.67;9.27;;;;;;;;;;10549918;28;20689;-73
2020/12/10 06:33:35;;;;;;;16.13;9.00;;;;;;;;;;10553942;28;20195;-74
2020/12/10 06:38:41;;;;;;;15.30;9.30;;;;;;;;;;10542689;28;20209;-73
2020/12/10 06:43:43;;;;;;;19.23;10.37;;;;;;;;;;10548755;28;20206;-73
2020/12/10 06:48:46;;;;;;;19.70;10.17;;;;;;;;;;10556123;28;20211;-73
2020/12/10 06:54:05;;;;;;;17.57;9.83;;;;;;;;;;10566166;28;20207;-73
2020/12/10 06:59:08;;;;;;;20.73;10.50;;;;;;;;;;10551702;28;20230;-74
2020/12/10 07:04:14;;;;;;;20.07;11.87;;;;;;;;;;10558590;28;20298;-74
2020/12/10 07:09:17;;;;;;;19.53;10.80;;;;;;;;;;10552200;28;20215;-74
2020/12/10 07:14:23;;;;;;;18.77;10.97;;;;;;;;;;10550342;28;20203;-72
2020/12/10 07:19:25;;;;;;;19.53;10.87;;;;;;;;;;10555189;28;20211;-73
2020/12/10 07:24:28;;;;;;;20.00;11.57;;;;;;;;;;10549251;28;20688;-73
2020/12/10 07:29:30;;;;;;;19.07;10.97;;;;;;;;;;10549230;28;20251;-73
2020/12/10 07:34:40;;;;;;;19.30;11.10;;;;;;;;;;10557575;28;20195;-73
2020/12/10 07:39:41;;;;;;;18.17;10.93;;;;;;;;;;10547849;28;20299;-75
2020/12/10 07:44:44;;;;;;;19.57;11.17;;;;;;;;;;10565963;28;20209;-74
2020/12/10 07:49:45;;;;;;;20.07;11.50;;;;;;;;;;10545729;28;20699;-73
2020/12/10 07:54:47;;;;;;;20.93;12.03;;;;;;;;;;10563228;28;20217;-74
2020/12/10 07:59:54;;;;;;;19.87;12.47;;;;;;;;;;10555293;28;20222;-74
2020/12/10 08:04:56;;;;;;;20.83;12.03;;;;;;;;;;10568298;28;20198;-75
2020/12/10 08:09:57;;;;;;;20.43;12.27;;;;;;;;;;10559719;28;20314;-73
2020/12/10 08:15:00;;;;;;;21.17;12.33;;;;;;;;;;10563648;28;20199;-75
2020/12/10 08:20:05;;;;;;;25.10;13.23;;;;;;;;;;10558770;28;20220;-74
2020/12/10 08:25:14;;;;;;;24.23;12.97;;;;;;;;;;10555386;28;20203;-72
2020/12/10 08:30:16;;;;;;;22.43;12.47;;;;;;;;;;10549562;28;20322;-73
2020/12/10 08:35:18;;;;;;;23.40;13.27;;;;;;;;;;10559767;28;20714;-73
2020/12/10 08:40:24;;;;;;;21.03;12.30;;;;;;;;;;10551176;28;20255;-72
2020/12/10 08:45:31;;;;;;;24.47;13.33;;;;;;;;;;10548011;27;20609;-73
2020/12/10 08:50:32;;;;;;;22.97;11.93;;;;;;;;;;10561310;27;20311;-74
2020/12/10 08:55:38;;;;;;;22.60;12.63;;;;;;;;;;10555971;27;20206;-75
2020/12/10 09:00:40;;;;;;;23.10;12.80;;;;;;;;;;10557442;27;20289;-74
2020/12/10 09:05:43;;;;;;;23.43;12.17;;;;;;;;;;10560212;27;20248;-75
2020/12/10 09:10:46;;;;;;;23.57;12.87;;;;;;;;;;10559545;27;20249;-72
2020/12/10 09:15:49;;;;;;;22.93;12.97;;;;;;;;;;10564854;27;20226;-72
2020/12/10 09:20:53;;;;;;;22.70;12.70;;;;;;;;;;10558959;27;20220;-72
2020/12/10 09:25:55;;;;;;;19.83;11.27;;;;;;;;;;10562142;27;20200;-72
2020/12/10 09:30:57;;;;;;;19.50;10.43;;;;;;;;;;10550136;28;20226;-72
2020/12/10 09:35:59;;;;;;;17.47;10.37;;;;;;;;;;10553403;28;20347;-72
2020/12/10 09:41:00;;;;;;;18.13;9.93;;;;;;;;;;10559071;27;20219;-73
2020/12/10 09:46:07;;;;;;;15.03;8.63;;;;;;;;;;10550161;27;20206;-72
2020/12/10 09:51:11;;;;;;;17.37;10.03;;;;;;;;;;10559944;28;20582;-72
2020/12/10 10:01:44;;;;;;;20.57;11.43;;;;;;;;;;10548557;27;20226;-73
2020/12/10 10:06:46;;;;;;;18.47;10.87;;;;;;;;;;10551559;28;20219;-74
2020/12/10 10:11:48;;;;;;;20.10;11.10;;;;;;;;;;10551668;28;20385;-73
2020/12/10 10:16:53;;;;;;;20.87;11.73;;;;;;;;;;10561388;28;20202;-74
2020/12/10 10:21:56;;;;;;;19.53;11.67;;;;;;;;;;10559235;28;20309;-73
2020/12/10 10:26:57;;;;;;;21.40;12.37;;;;;;;;;;10558211;28;20607;-73
2020/12/10 10:32:00;;;;;;;23.57;13.60;;;;;;;;;;10559852;28;20214;-73
2020/12/10 10:37:01;;;;;;;20.77;12.03;;;;;;;;;;10559155;28;20276;-73
2020/12/10 10:42:03;;;;;;;21.90;11.97;;;;;;;;;;10559231;28;20221;-73
2020/12/10 10:47:05;;;;;;;23.57;13.73;;;;;;;;;;10553453;28;20706;-75
2020/12/10 10:52:07;;;;;;;21.20;11.40;;;;;;;;;;10547110;28;20218;-72
2020/12/10 10:57:08;;;;;;;21.13;11.53;;;;;;;;;;10553224;28;20207;-73
2020/12/10 11:02:11;;;;;;;18.90;11.00;;;;;;;;;;10554224;28;20310;-73
2020/12/10 11:07:12;;;;;;;22.73;11.50;;;;;;;;;;10551379;28;20288;-72
2020/12/10 11:12:14;;;;;;;19.63;10.63;;;;;;;;;;10555633;28;20216;-73
2020/12/10 11:17:17;;;;;;;20.73;11.53;;;;;;;;;;10569641;28;20574;-72
2020/12/10 11:22:18;;;;;;;22.63;11.67;;;;;;;;;;10568711;28;20542;-74
2020/12/10 11:27:25;;;;;;;21.77;12.10;;;;;;;;;;10569203;28;20226;-73
2020/12/10 11:32:30;;;;;;;24.27;11.30;;;;;;;;;;10568629;28;20218;-73
2020/12/10 11:37:32;;;;;;;21.47;12.00;;;;;;;;;;10575232;28;20199;-74
2020/12/10 11:42:33;;;;;;;23.60;13.00;;;;;;;;;;10563111;28;20223;-73
2020/12/10 11:47:36;;;;;;;21.17;11.73;;;;;;;;;;10560572;28;20528;-72
2020/12/10 11:52:37;;;;;;;22.40;12.10;;;;;;;;;;10567194;28;20230;-74
2020/12/10 11:57:39;;;;;;;17.77;10.10;;;;;;;;;;10562765;28;20260;-74
2020/12/10 12:02:41;;;;;;;19.27;9.73;;;;;;;;;;10562112;28;20230;-74
2020/12/10 12:07:45;;;;;;;22.87;12.07;;;;;;;;;;10555642;28;20308;-74
2020/12/10 12:12:46;;;;;;;24.50;13.53;;;;;;;;;;10565843;28;20215;-74
2020/12/10 12:17:48;;;;;;;22.77;11.90;;;;;;;;;;10559520;28;20203;-74
2020/12/10 12:22:50;;;;;;;22.27;12.47;;;;;;;;;;10565355;28;20822;-73
2020/12/10 12:27:51;;;;;;;23.60;12.70;;;;;;;;;;10555870;28;20245;-72
2020/12/10 12:32:54;;;;;;;23.37;11.87;;;;;;;;;;10553472;28;20211;-73
2020/12/10 12:37:57;;;;;;;25.03;12.47;;;;;;;;;;10556272;28;20682;-73
2020/12/10 12:43:00;;;;;;;22.87;13.27;;;;;;;;;;10560839;28;20257;-73
2020/12/10 12:48:04;;;;;;;24.37;12.63;;;;;;;;;;10564091;28;20765;-73
2020/12/10 12:53:05;;;;;;;24.43;12.37;;;;;;;;;;10558077;28;20684;-73
2020/12/10 12:58:07;;;;;;;23.70;11.67;;;;;;;;;;10558459;28;20203;-72
2020/12/10 13:03:09;;;;;;;27.37;13.97;;;;;;;;;;10562922;28;20223;-73
2020/12/10 13:08:11;;;;;;;26.83;13.50;;;;;;;;;;10553438;28;20230;-74
2020/12/10 13:13:15;;;;;;;29.07;14.07;;;;;;;;;;10550710;28;20225;-74
2020/12/10 13:18:17;;;;;;;28.40;14.60;;;;;;;;;;10536962;28;20237;-74
2020/12/10 13:23:19;;;;;;;24.57;13.07;;;;;;;;;;10558805;28;20310;-74
2020/12/10 13:28:20;;;;;;;29.27;15.17;;;;;;;;;;10551032;28;20678;-74
2020/12/10 13:33:22;;;;;;;27.47;14.10;;;;;;;;;;10554881;28;20226;-74
2020/12/10 13:38:24;;;;;;;29.47;14.43;;;;;;;;;;10556700;28;20199;-74
2020/12/10 13:43:26;;;;;;;29.53;15.17;;;;;;;;;;10558651;28;20680;-72
2020/12/10 13:48:28;;;;;;;26.13;13.57;;;;;;;;;;10550828;28;20234;-72
2020/12/10 13:53:30;;;;;;;24.73;12.50;;;;;;;;;;10546058;28;20211;-73
2020/12/10 13:58:31;;;;;;;24.20;13.10;;;;;;;;;;10553646;28;20298;-72
2020/12/10 14:03:33;;;;;;;23.90;12.80;;;;;;;;;;10553819;28;20206;-74
2020/12/10 14:08:44;;;;;;;25.83;13.50;;;;;;;;;;10554288;28;20226;-73
2020/12/10 14:13:46;;;;;;;25.07;13.07;;;;;;;;;;10551250;28;20210;-72
2020/12/10 14:18:48;;;;;;;25.70;13.37;;;;;;;;;;10554411;28;20633;-74
2020/12/10 14:23:50;;;;;;;24.00;13.17;;;;;;;;;;10548963;28;20195;-71
2020/12/10 14:28:52;;;;;;;21.73;11.77;;;;;;;;;;10542861;28;21003;-72
2020/12/10 14:33:55;;;;;;;22.50;11.83;;;;;;;;;;10558016;28;20281;-73
2020/12/10 14:38:56;;;;;;;22.13;11.80;;;;;;;;;;10548373;28;20233;-72
2020/12/10 14:43:58;;;;;;;20.97;11.00;;;;;;;;;;10554178;28;20500;-72
2020/12/10 14:49:00;;;;;;;21.37;11.17;;;;;;;;;;10548608;28;20237;-71
2020/12/10 14:54:02;;;;;;;21.73;12.00;;;;;;;;;;10548213;28;20554;-73
2020/12/10 14:59:03;;;;;;;22.23;11.70;;;;;;;;;;10552087;28;20223;-74
2020/12/10 15:04:06;;;;;;;21.47;11.73;;;;;;;;;;10539811;28;20551;-72
2020/12/10 15:09:07;;;;;;;21.53;11.23;;;;;;;;;;10552163;28;20242;-72
2020/12/10 15:14:09;;;;;;;21.70;11.33;;;;;;;;;;10543283;28;20306;-73
2020/12/10 15:19:11;;;;;;;21.43;11.00;;;;;;;;;;10540220;28;20790;-73
2020/12/10 15:24:13;;;;;;;19.13;10.70;;;;;;;;;;10546189;28;20207;-73
2020/12/10 15:29:14;;;;;;;19.53;10.87;;;;;;;;;;10556650;28;20537;-74
2020/12/10 15:34:16;;;;;;;20.10;10.63;;;;;;;;;;10553380;28;20217;-73
2020/12/10 15:39:18;;;;;;;19.13;9.83;;;;;;;;;;10559797;28;20690;-73
2020/12/10 15:44:20;;;;;;;20.60;9.97;;;;;;;;;;10555299;28;20209;-74
2020/12/10 15:49:23;;;;;;;20.27;10.50;;;;;;;;;;10546020;28;20237;-74
2020/12/10 15:54:25;;;;;;;16.63;9.47;;;;;;;;;;10561110;28;20335;-73
2020/12/10 15:59:26;;;;;;;19.27;9.83;;;;;;;;;;10554380;28;20303;-72
2020/12/10 16:04:30;;;;;;;19.30;9.77;;;;;;;;;;10564654;28;20200;-72
2020/12/10 16:09:32;;;;;;;16.47;9.03;;;;;;;;;;10550248;28;20236;-72
2020/12/10 16:14:34;;;;;;;16.83;8.90;;;;;;;;;;10551330;28;20628;-73
2020/12/10 16:19:36;;;;;;;18.50;9.53;;;;;;;;;;10554437;28;20216;-71
2020/12/10 16:24:37;;;;;;;18.60;10.43;;;;;;;;;;10551355;28;20195;-73
2020/12/10 16:29:41;;;;;;;19.43;9.47;;;;;;;;;;10566317;28;20234;-73
2020/12/10 16:34:43;;;;;;;19.87;10.00;;;;;;;;;;10547706;28;20670;-74
2020/12/10 16:39:45;;;;;;;20.57;10.23;;;;;;;;;;10560735;28;20226;-73
2020/12/10 16:44:46;;;;;;;22.13;10.67;;;;;;;;;;10559416;28;20211;-73
2020/12/10 16:49:49;;;;;;;21.40;10.80;;;;;;;;;;10552908;28;20238;-72
2020/12/10 16:54:50;;;;;;;21.90;11.00;;;;;;;;;;10561537;28;20221;-73
2020/12/10 16:59:52;;;;;;;22.97;10.47;;;;;;;;;;10545048;28;20234;-74
2020/12/10 17:04:54;;;;;;;25.97;12.30;;;;;;;;;;10543572;28;20204;-73
2020/12/10 17:09:56;;;;;;;22.77;11.43;;;;;;;;;;10563420;28;20616;-74
2020/12/10 17:14:58;;;;;;;23.97;11.43;;;;;;;;;;10556070;28;20205;-74
2020/12/10 17:20:00;;;;;;;23.33;11.47;;;;;;;;;;10548046;28;20227;-74
2020/12/10 17:25:02;;;;;;;21.57;11.70;;;;;;;;;;10554933;28;20207;-72
2020/12/10 17:30:04;;;;;;;24.27;11.50;;;;;;;;;;10556943;28;20231;-73
2020/12/10 17:35:07;;;;;;;26.67;12.23;;;;;;;;;;10559242;28;20199;-72
2020/12/10 17:40:08;;;;;;;27.57;13.03;;;;;;;;;;10550930;28;20211;-75
2020/12/10 17:45:09;;;;;;;22.20;10.93;;;;;;;;;;10553574;28;20488;-75
2020/12/10 17:50:13;;;;;;;21.07;10.70;;;;;;;;;;10567399;28;20215;-72
2020/12/10 17:55:15;;;;;;;21.13;11.03;;;;;;;;;;10564766;28;20556;-73
2020/12/10 18:00:16;;;;;;;21.93;11.07;;;;;;;;;;10550977;28;20699;-74
2020/12/10 18:05:19;;;;;;;22.13;10.30;;;;;;;;;;10558096;28;20206;-73
2020/12/10 18:10:20;;;;;;;22.33;10.83;;;;;;;;;;10552747;28;20314;-73
2020/12/10 18:15:22;;;;;;;22.87;11.37;;;;;;;;;;10546861;28;20650;-73
2020/12/10 18:20:25;;;;;;;20.83;9.47;;;;;;;;;;10547390;28;20215;-71
2020/12/10 18:25:26;;;;;;;19.57;9.80;;;;;;;;;;10556682;28;20199;-73
2020/12/10 18:30:29;;;;;;;18.80;9.20;;;;;;;;;;10560072;28;20234;-73
2020/12/10 18:35:31;;;;;;;18.60;9.30;;;;;;;;;;10554362;28;20204;-72
2020/12/10 18:40:33;;;;;;;20.17;10.07;;;;;;;;;;10547656;28;20692;-72
2020/12/10 18:45:35;;;;;;;18.83;9.57;;;;;;;;;;10556359;28;20258;-73
2020/12/10 18:50:39;;;;;;;18.90;10.47;;;;;;;;;;10574873;28;20241;-73
2020/12/10 18:55:40;;;;;;;21.97;10.67;;;;;;;;;;10573601;28;20214;-72
2020/12/10 19:00:42;;;;;;;20.33;10.33;;;;;;;;;;10576184;28;20302;-74
2020/12/10 19:05:44;;;;;;;19.97;10.83;;;;;;;;;;10553292;28;20202;-73
2020/12/10 19:10:46;;;;;;;25.80;15.37;;;;;;;;;;10560017;28;20665;-74
2020/12/10 19:15:48;;;;;;;18.97;9.33;;;;;;;;;;10551094;28;20204;-72
2020/12/10 19:20:50;;;;;;;21.13;11.33;;;;;;;;;;10541667;28;20272;-73
2020/12/10 19:25:52;;;;;;;17.77;8.90;;;;;;;;;;10527315;28;20206;-74
2020/12/10 19:31:10;;;;;;;17.13;7.40;;;;;;;;;;10547971;28;20226;-74
2020/12/10 19:36:12;;;;;;;25.57;13.10;;;;;;;;;;10562219;28;20214;-73
2020/12/10 19:41:14;;;;;;;23.43;12.80;;;;;;;;;;10550347;27;20215;-72
2020/12/10 19:46:15;;;;;;;27.87;14.10;;;;;;;;;;10561231;28;20442;-72
2020/12/10 19:51:18;;;;;;;19.27;8.97;;;;;;;;;;10553463;28;20223;-72
2020/12/10 19:56:19;;;;;;;26.43;13.27;;;;;;;;;;10552946;28;20223;-71
2020/12/10 20:01:21;;;;;;;29.37;14.03;;;;;;;;;;10556608;28;20215;-72
2020/12/10 20:06:24;;;;;;;24.83;13.63;;;;;;;;;;10548014;28;20199;-73
2020/12/10 20:11:26;;;;;;;28.23;14.90;;;;;;;;;;10552863;28;20223;-72
2020/12/10 20:16:28;;;;;;;25.43;13.53;;;;;;;;;;10552667;28;20187;-71
2020/12/10 20:21:33;;;;;;;27.80;13.80;;;;;;;;;;10547272;28;20264;-72
2020/12/10 20:26:42;;;;;;;28.00;14.00;;;;;;;;;;10545664;28;20282;-72
2020/12/10 20:31:43;;;;;;;26.33;13.30;;;;;;;;;;10551573;28;20231;-72
2020/12/10 20:36:46;;;;;;;24.47;12.83;;;;;;;;;;10536870;28;20206;-73
2020/12/10 20:41:47;;;;;;;24.80;13.13;;;;;;;;;;10548903;28;20230;-73
2020/12/10 20:46:49;;;;;;;23.90;12.23;;;;;;;;;;10559614;28;20203;-72
2020/12/10 20:51:51;;;;;;;23.97;12.77;;;;;;;;;;10553174;28;20243;-73
2020/12/10 20:56:53;;;;;;;22.97;12.23;;;;;;;;;;10555286;28;20223;-73
2020/12/10 21:01:55;;;;;;;23.60;12.30;;;;;;;;;;10550522;28;20247;-73
2020/12/10 21:06:57;;;;;;;25.90;13.23;;;;;;;;;;10541172;28;20210;-73
2020/12/10 21:11:59;;;;;;;24.73;12.83;;;;;;;;;;10546807;28;20226;-73
2020/12/10 21:17:01;;;;;;;24.00;13.03;;;;;;;;;;10549176;28;20196;-74
2020/12/10 21:22:10;;;;;;;24.63;12.27;;;;;;;;;;10552527;28;20223;-72
2020/12/10 21:27:13;;;;;;;23.20;12.60;;;;;;;;;;10546775;28;20215;-72
2020/12/10 21:32:14;;;;;;;21.77;11.60;;;;;;;;;;10553999;28;20662;-72
2020/12/10 21:37:17;;;;;;;21.70;11.83;;;;;;;;;;10547708;28;20211;-72
2020/12/10 21:42:18;;;;;;;22.43;11.40;;;;;;;;;;10538799;28;20223;-73
2020/12/10 21:47:20;;;;;;;22.43;11.57;;;;;;;;;;10555818;28;20272;-73
2020/12/10 21:52:23;;;;;;;23.60;12.07;;;;;;;;;;10545810;28;20228;-73
2020/12/10 21:57:24;;;;;;;21.40;11.50;;;;;;;;;;10548000;28;20207;-73
2020/12/10 22:02:26;;;;;;;17.80;9.33;;;;;;;;;;10552225;28;20219;-74
2020/12/10 22:07:28;;;;;;;20.73;10.43;;;;;;;;;;10550552;28;20547;-74
2020/12/10 22:12:30;;;;;;;21.97;11.40;;;;;;;;;;10553770;28;20223;-75
2020/12/10 22:17:31;;;;;;;21.37;11.17;;;;;;;;;;10551785;28;20289;-74
2020/12/10 22:22:34;;;;;;;21.00;11.40;;;;;;;;;;10543203;28;20642;-74
2020/12/10 22:27:35;;;;;;;20.87;10.40;;;;;;;;;;10553322;28;20203;-73
2020/12/10 22:32:37;;;;;;;20.53;10.67;;;;;;;;;;10549808;28;20223;-75
2020/12/10 22:37:39;;;;;;;19.23;9.90;;;;;;;;;;10549144;28;20562;-73
2020/12/10 22:42:40;;;;;;;20.00;10.07;;;;;;;;;;10547124;28;20730;-73
2020/12/10 22:47:42;;;;;;;19.10;9.30;;;;;;;;;;10555386;28;20199;-72
2020/12/10 22:52:44;;;;;;;18.27;9.43;;;;;;;;;;10545571;28;20246;-74
2020/12/10 22:57:46;;;;;;;19.10;9.97;;;;;;;;;;10550284;28;20662;-73
2020/12/10 23:02:49;;;;;;;20.73;10.37;;;;;;;;;;10549277;28;20233;-73
2020/12/10 23:07:51;;;;;;;19.80;10.10;;;;;;;;;;10558493;28;20224;-72
2020/12/10 23:12:52;;;;;;;22.20;11.50;;;;;;;;;;10556228;28;20578;-72
2020/12/10 23:17:54;;;;;;;19.97;10.80;;;;;;;;;;10555796;28;20199;-74
2020/12/10 23:22:57;;;;;;;19.87;10.97;;;;;;;;;;10553585;28;20292;-74
2020/12/10 23:27:59;;;;;;;22.70;11.73;;;;;;;;;;10561625;28;20219;-73
2020/12/10 23:33:01;;;;;;;25.03;13.23;;;;;;;;;;10554109;28;20678;-72
2020/12/10 23:38:03;;;;;;;28.23;14.67;;;;;;;;;;10561896;28;20673;-71
2020/12/10 23:43:04;;;;;;;25.77;14.27;;;;;;;;;;10556826;28;20647;-73
2020/12/10 23:48:06;;;;;;;27.80;14.13;;;;;;;;;;10552181;28;20196;-74
2020/12/10 23:53:08;;;;;;;23.63;13.20;;;;;;;;;;10557750;28;20241;-73
2020/12/10 23:58:09;;;;;;;22.50;12.33;;;;;;;;;;10545357;28;20199;-72
